sensor_id;sensor_type;location;lat;lon;timestamp;temperature;humidity
47765;DHT22;33529;49.242;8.670;2022-12-11T00:01:17;-1.90;99.90
47765;DHT22;33529;49.242;8.670;2022-12-11T00:03:44;-2.00;99.90
47765;DHT22;33529;49.242;8.670;2022-12-11T00:06:14;-2.00;99.90
47765;DHT22;33529;49.242;8.670;2022-12-11T00:08:41;-2.10;99.90
47765;DHT22;33529;49.242;8.670;2022-12-11T00:11:12;-2.10;99.90
47765;DHT22;33529;49.242;8.670;2022-12-11T00:13:40;-2.20;99.90
47765;DHT22;33529;49.242;8.670;2022-12-11T00:16:07;-2.30;99.90
47765;DHT22;33529;49.242;8.670;2022-12-11T00:18:34;-2.40;99.90
47765;DHT22;33529;49.242;8.670;2022-12-11T00:21:07;-2.30;99.90
47765;DHT22;33529;49.242;8.670;2022-12-11T00:23:35;-2.40;99.90
47765;DHT22;33529;49.242;8.670;2022-12-11T00:26:13;-2.40;99.90
47765;DHT22;33529;49.242;8.670;2022-12-11T00:28:41;-2.40;99.90
47765;DHT22;33529;49.242;8.670;2022-12-11T00:31:13;-2.40;99.90
47765;DHT22;33529;49.242;8.670;2022-12-11T00:33:42;-2.40;99.90
47765;DHT22;33529;49.242;8.670;2022-12-11T00:36:14;-2.30;99.90
47765;DHT22;33529;49.242;8.670;2022-12-11T00:38:42;-2.30;99.90
47765;DHT22;33529;49.242;8.670;2022-12-11T00:41:09;-2.30;99.90
47765;DHT22;33529;49.242;8.670;2022-12-11T00:43:37;-2.30;99.90
47765;DHT22;33529;49.242;8.670;2022-12-11T00:46:04;-2.30;99.90
47765;DHT22;33529;49.242;8.670;2022-12-11T00:48:31;-2.40;99.90
47765;DHT22;33529;49.242;8.670;2022-12-11T00:50:58;-2.40;99.90
47765;DHT22;33529;49.242;8.670;2022-12-11T00:53:25;-2.40;99.90
47765;DHT22;33529;49.242;8.670;2022-12-11T00:55:52;-2.40;99.90
47765;DHT22;33529;49.242;8.670;2022-12-11T00:58:19;-2.50;99.90
47765;DHT22;33529;49.242;8.670;2022-12-11T01:00:45;-2.50;99.90
47765;DHT22;33529;49.242;8.670;2022-12-11T01:03:14;-2.50;99.90
47765;DHT22;33529;49.242;8.670;2022-12-11T01:05:50;-2.60;99.90
47765;DHT22;33529;49.242;8.670;2022-12-11T01:08:17;-2.60;99.90
47765;DHT22;33529;49.242;8.670;2022-12-11T01:10:44;-2.70;99.90
47765;DHT22;33529;49.242;8.670;2022-12-11T01:13:11;-2.70;99.90
47765;DHT22;33529;49.242;8.670;2022-12-11T01:15:42;-2.80;99.90
47765;DHT22;33529;49.242;8.670;2022-12-11T01:18:12;-2.70;99.90
47765;DHT22;33529;49.242;8.670;2022-12-11T01:20:40;-2.70;99.90
47765;DHT22;33529;49.242;8.670;2022-12-11T01:23:10;-2.70;99.90
47765;DHT22;33529;49.242;8.670;2022-12-11T01:25:38;-2.70;99.90
47765;DHT22;33529;49.242;8.670;2022-12-11T01:28:06;-2.70;99.90
47765;DHT22;33529;49.242;8.670;2022-12-11T01:30:33;-2.70;99.90
47765;DHT22;33529;49.242;8.670;2022-12-11T01:33:00;-2.70;99.90
47765;DHT22;33529;49.242;8.670;2022-12-11T01:35:27;-2.70;99.90
47765;DHT22;33529;49.242;8.670;2022-12-11T01:37:54;-2.70;99.90
47765;DHT22;33529;49.242;8.670;2022-12-11T01:40:21;-2.60;99.90
47765;DHT22;33529;49.242;8.670;2022-12-11T01:42:48;-2.60;99.90
47765;DHT22;33529;49.242;8.670;2022-12-11T01:47:56;-2.50;99.90
47765;DHT22;33529;49.242;8.670;2022-12-11T01:50:25;-2.50;99.90
47765;DHT22;33529;49.242;8.670;2022-12-11T01:52:52;-2.40;99.90
47765;DHT22;33529;49.242;8.670;2022-12-11T01:55:19;-2.40;99.90
47765;DHT22;33529;49.242;8.670;2022-12-11T01:57:48;-2.30;99.90
47765;DHT22;33529;49.242;8.670;2022-12-11T02:00:18;-2.20;99.90
47765;DHT22;33529;49.242;8.670;2022-12-11T02:02:45;-2.10;99.90
47765;DHT22;33529;49.242;8.670;2022-12-11T02:05:12;-2.10;99.90
47765;DHT22;33529;49.242;8.670;2022-12-11T02:08:00;-2.00;99.90
47765;DHT22;33529;49.242;8.670;2022-12-11T02:14:01;-2.00;99.90
47765;DHT22;33529;49.242;8.670;2022-12-11T02:16:41;-2.10;99.90
47765;DHT22;33529;49.242;8.670;2022-12-11T02:31:27;-2.10;99.90
47765;DHT22;33529;49.242;8.670;2022-12-11T02:34:21;-2.00;99.90
47765;DHT22;33529;49.242;8.670;2022-12-11T02:36:54;-1.90;99.90
47765;DHT22;33529;49.242;8.670;2022-12-11T02:39:24;-1.90;99.90
47765;DHT22;33529;49.242;8.670;2022-12-11T02:41:53;-1.80;99.90
47765;DHT22;33529;49.242;8.670;2022-12-11T02:44:25;-1.80;99.90
47765;DHT22;33529;49.242;8.670;2022-12-11T02:46:53;-1.70;99.90
47765;DHT22;33529;49.242;8.670;2022-12-11T02:49:20;-1.50;99.90
47765;DHT22;33529;49.242;8.670;2022-12-11T02:51:49;-1.50;99.90
47765;DHT22;33529;49.242;8.670;2022-12-11T02:54:23;-1.40;99.90
47765;DHT22;33529;49.242;8.670;2022-12-11T02:56:58;-1.30;99.90
47765;DHT22;33529;49.242;8.670;2022-12-11T02:59:33;-1.40;99.90
47765;DHT22;33529;49.242;8.670;2022-12-11T03:02:02;-1.40;99.90
47765;DHT22;33529;49.242;8.670;2022-12-11T03:04:29;-1.40;99.90
47765;DHT22;33529;49.242;8.670;2022-12-11T03:07:07;-1.40;99.90
47765;DHT22;33529;49.242;8.670;2022-12-11T03:09:38;-1.50;99.90
47765;DHT22;33529;49.242;8.670;2022-12-11T03:12:09;-1.40;99.90
47765;DHT22;33529;49.242;8.670;2022-12-11T03:14:38;-1.50;99.90
47765;DHT22;33529;49.242;8.670;2022-12-11T03:17:24;-1.60;99.90
47765;DHT22;33529;49.242;8.670;2022-12-11T03:20:11;-1.50;99.90
47765;DHT22;33529;49.242;8.670;2022-12-11T03:22:52;-1.50;99.90
47765;DHT22;33529;49.242;8.670;2022-12-11T03:25:34;-1.50;99.90
47765;DHT22;33529;49.242;8.670;2022-12-11T03:28:46;-1.50;99.90
47765;DHT22;33529;49.242;8.670;2022-12-11T03:31:10;-1.50;99.90
47765;DHT22;33529;49.242;8.670;2022-12-11T03:33:40;-1.50;99.90
47765;DHT22;33529;49.242;8.670;2022-12-11T03:36:10;-1.50;99.90
47765;DHT22;33529;49.242;8.670;2022-12-11T03:41:09;-1.50;99.90
47765;DHT22;33529;49.242;8.670;2022-12-11T03:43:39;-1.50;99.90
47765;DHT22;33529;49.242;8.670;2022-12-11T03:46:08;-1.40;99.90
47765;DHT22;33529;49.242;8.670;2022-12-11T03:48:39;-1.30;99.90
47765;DHT22;33529;49.242;8.670;2022-12-11T03:51:08;-1.20;99.90
47765;DHT22;33529;49.242;8.670;2022-12-11T03:53:35;-1.30;99.90
47765;DHT22;33529;49.242;8.670;2022-12-11T03:56:05;-1.30;99.90
47765;DHT22;33529;49.242;8.670;2022-12-11T03:58:33;-1.20;99.90
47765;DHT22;33529;49.242;8.670;2022-12-11T04:01:00;-1.20;99.90
47765;DHT22;33529;49.242;8.670;2022-12-11T04:03:27;-1.10;99.90
47765;DHT22;33529;49.242;8.670;2022-12-11T04:05:54;-1.10;99.90
47765;DHT22;33529;49.242;8.670;2022-12-11T04:08:22;-1.10;99.90
47765;DHT22;33529;49.242;8.670;2022-12-11T04:10:50;-1.10;99.90
47765;DHT22;33529;49.242;8.670;2022-12-11T04:13:40;-1.00;99.90
47765;DHT22;33529;49.242;8.670;2022-12-11T04:16:08;-1.00;99.90
47765;DHT22;33529;49.242;8.670;2022-12-11T04:18:34;-0.90;99.90
47765;DHT22;33529;49.242;8.670;2022-12-11T04:21:20;-0.90;99.90
47765;DHT22;33529;49.242;8.670;2022-12-11T04:24:06;-0.90;99.90
47765;DHT22;33529;49.242;8.670;2022-12-11T04:26:44;-0.90;99.90
47765;DHT22;33529;49.242;8.670;2022-12-11T04:29:12;-1.00;99.90
47765;DHT22;33529;49.242;8.670;2022-12-11T04:31:39;-0.90;99.90
47765;DHT22;33529;49.242;8.670;2022-12-11T04:34:06;-0.90;99.90
47765;DHT22;33529;49.242;8.670;2022-12-11T04:36:33;-0.90;99.90
47765;DHT22;33529;49.242;8.670;2022-12-11T04:39:00;-0.90;99.90
47765;DHT22;33529;49.242;8.670;2022-12-11T04:41:27;-1.00;99.90
47765;DHT22;33529;49.242;8.670;2022-12-11T04:43:53;-1.00;99.90
47765;DHT22;33529;49.242;8.670;2022-12-11T04:46:22;-1.10;99.90
47765;DHT22;33529;49.242;8.670;2022-12-11T04:48:50;-1.10;99.90
47765;DHT22;33529;49.242;8.670;2022-12-11T04:51:23;-1.20;99.90
47765;DHT22;33529;49.242;8.670;2022-12-11T04:53:50;-1.10;99.90
47765;DHT22;33529;49.242;8.670;2022-12-11T04:56:17;-1.10;99.90
47765;DHT22;33529;49.242;8.670;2022-12-11T04:58:44;-1.10;99.90
47765;DHT22;33529;49.242;8.670;2022-12-11T05:01:14;-1.20;99.90
47765;DHT22;33529;49.242;8.670;2022-12-11T05:03:42;-1.20;99.90
47765;DHT22;33529;49.242;8.670;2022-12-11T05:06:11;-1.20;99.90
47765;DHT22;33529;49.242;8.670;2022-12-11T05:08:40;-1.20;99.90
47765;DHT22;33529;49.242;8.670;2022-12-11T05:11:10;-1.20;99.90
47765;DHT22;33529;49.242;8.670;2022-12-11T05:13:37;-1.10;99.90
47765;DHT22;33529;49.242;8.670;2022-12-11T05:16:06;-1.00;99.90
47765;DHT22;33529;49.242;8.670;2022-12-11T05:18:34;-1.10;99.90
47765;DHT22;33529;49.242;8.670;2022-12-11T05:21:04;-1.10;99.90
47765;DHT22;33529;49.242;8.670;2022-12-11T05:23:32;-1.00;99.90
47765;DHT22;33529;49.242;8.670;2022-12-11T05:26:02;-0.90;99.90
47765;DHT22;33529;49.242;8.670;2022-12-11T05:28:34;-0.90;99.90
47765;DHT22;33529;49.242;8.670;2022-12-11T05:31:03;-0.90;99.90
47765;DHT22;33529;49.242;8.670;2022-12-11T05:33:31;-0.90;99.90
47765;DHT22;33529;49.242;8.670;2022-12-11T05:35:57;-0.80;99.90
47765;DHT22;33529;49.242;8.670;2022-12-11T05:38:24;-0.80;99.90
47765;DHT22;33529;49.242;8.670;2022-12-11T05:41:01;-0.90;99.90
47765;DHT22;33529;49.242;8.670;2022-12-11T05:43:30;-0.90;99.90
47765;DHT22;33529;49.242;8.670;2022-12-11T05:46:11;-0.90;99.90
47765;DHT22;33529;49.242;8.670;2022-12-11T05:48:40;-0.80;99.90
47765;DHT22;33529;49.242;8.670;2022-12-11T05:51:08;-0.80;99.90
47765;DHT22;33529;49.242;8.670;2022-12-11T05:53:36;-0.80;99.90
47765;DHT22;33529;49.242;8.670;2022-12-11T05:56:10;-0.80;99.90
47765;DHT22;33529;49.242;8.670;2022-12-11T05:58:38;-0.80;99.90
47765;DHT22;33529;49.242;8.670;2022-12-11T06:01:08;-0.80;99.90
47765;DHT22;33529;49.242;8.670;2022-12-11T06:03:35;-0.90;99.90
47765;DHT22;33529;49.242;8.670;2022-12-11T06:06:02;-0.90;99.90
47765;DHT22;33529;49.242;8.670;2022-12-11T06:08:30;-0.90;99.90
47765;DHT22;33529;49.242;8.670;2022-12-11T06:10:57;-0.90;99.90
47765;DHT22;33529;49.242;8.670;2022-12-11T06:13:24;-0.80;99.90
47765;DHT22;33529;49.242;8.670;2022-12-11T06:15:51;-0.80;99.90
47765;DHT22;33529;49.242;8.670;2022-12-11T06:18:18;-0.80;99.90
47765;DHT22;33529;49.242;8.670;2022-12-11T06:20:45;-0.70;99.90
47765;DHT22;33529;49.242;8.670;2022-12-11T06:23:11;-0.70;99.90
47765;DHT22;33529;49.242;8.670;2022-12-11T06:25:38;-0.70;99.90
47765;DHT22;33529;49.242;8.670;2022-12-11T06:28:06;-0.70;99.90
47765;DHT22;33529;49.242;8.670;2022-12-11T06:30:32;-0.70;99.90
47765;DHT22;33529;49.242;8.670;2022-12-11T06:33:05;-0.70;99.90
47765;DHT22;33529;49.242;8.670;2022-12-11T06:35:32;-0.70;99.90
47765;DHT22;33529;49.242;8.670;2022-12-11T06:38:07;-0.70;99.90
47765;DHT22;33529;49.242;8.670;2022-12-11T06:40:34;-0.60;99.90
47765;DHT22;33529;49.242;8.670;2022-12-11T06:43:01;-0.60;99.90
47765;DHT22;33529;49.242;8.670;2022-12-11T06:45:29;-0.60;99.90
47765;DHT22;33529;49.242;8.670;2022-12-11T06:47:57;-0.80;99.90
47765;DHT22;33529;49.242;8.670;2022-12-11T06:50:24;-0.80;99.90
47765;DHT22;33529;49.242;8.670;2022-12-11T06:52:50;-0.90;99.90
47765;DHT22;33529;49.242;8.670;2022-12-11T06:55:17;-0.90;99.90
47765;DHT22;33529;49.242;8.670;2022-12-11T06:57:44;-0.90;99.90
47765;DHT22;33529;49.242;8.670;2022-12-11T07:00:11;-0.90;99.90
47765;DHT22;33529;49.242;8.670;2022-12-11T07:02:38;-0.90;99.90
47765;DHT22;33529;49.242;8.670;2022-12-11T07:05:05;-0.90;99.90
47765;DHT22;33529;49.242;8.670;2022-12-11T07:07:32;-0.90;99.90
47765;DHT22;33529;49.242;8.670;2022-12-11T07:10:00;-0.90;99.90
47765;DHT22;33529;49.242;8.670;2022-12-11T07:12:34;-0.90;99.90
47765;DHT22;33529;49.242;8.670;2022-12-11T07:15:02;-0.90;99.90
47765;DHT22;33529;49.242;8.670;2022-12-11T07:17:29;-1.00;99.90
47765;DHT22;33529;49.242;8.670;2022-12-11T07:19:56;-0.90;99.90
47765;DHT22;33529;49.242;8.670;2022-12-11T07:22:23;-1.00;99.90
47765;DHT22;33529;49.242;8.670;2022-12-11T07:24:50;-0.90;99.90
47765;DHT22;33529;49.242;8.670;2022-12-11T07:27:16;-1.00;99.90
47765;DHT22;33529;49.242;8.670;2022-12-11T07:29:43;-0.90;99.90
47765;DHT22;33529;49.242;8.670;2022-12-11T07:32:10;-0.90;99.90
47765;DHT22;33529;49.242;8.670;2022-12-11T07:34:37;-0.90;99.90
47765;DHT22;33529;49.242;8.670;2022-12-11T07:37:04;-0.80;99.90
47765;DHT22;33529;49.242;8.670;2022-12-11T07:39:31;-0.90;99.90
47765;DHT22;33529;49.242;8.670;2022-12-11T07:41:58;-0.90;99.90
47765;DHT22;33529;49.242;8.670;2022-12-11T07:44:24;-0.90;99.90
47765;DHT22;33529;49.242;8.670;2022-12-11T07:46:51;-0.90;99.90
47765;DHT22;33529;49.242;8.670;2022-12-11T07:49:18;-0.90;99.90
47765;DHT22;33529;49.242;8.670;2022-12-11T07:51:44;-0.90;99.90
47765;DHT22;33529;49.242;8.670;2022-12-11T07:54:14;-0.80;99.90
47765;DHT22;33529;49.242;8.670;2022-12-11T07:56:46;-0.80;99.90
47765;DHT22;33529;49.242;8.670;2022-12-11T07:59:19;-0.90;99.90
47765;DHT22;33529;49.242;8.670;2022-12-11T08:01:46;-0.90;99.90
47765;DHT22;33529;49.242;8.670;2022-12-11T08:04:13;-0.90;99.90
47765;DHT22;33529;49.242;8.670;2022-12-11T08:06:41;-0.80;99.90
47765;DHT22;33529;49.242;8.670;2022-12-11T08:09:11;-0.80;99.90
47765;DHT22;33529;49.242;8.670;2022-12-11T08:11:48;-0.80;99.90
47765;DHT22;33529;49.242;8.670;2022-12-11T08:14:15;-0.70;99.90
47765;DHT22;33529;49.242;8.670;2022-12-11T08:16:42;-0.70;99.90
47765;DHT22;33529;49.242;8.670;2022-12-11T08:19:13;-0.80;99.90
47765;DHT22;33529;49.242;8.670;2022-12-11T08:21:40;-0.80;99.90
47765;DHT22;33529;49.242;8.670;2022-12-11T08:24:07;-0.90;99.90
47765;DHT22;33529;49.242;8.670;2022-12-11T08:26:34;-0.80;99.90
47765;DHT22;33529;49.242;8.670;2022-12-11T08:29:01;-0.80;99.90
47765;DHT22;33529;49.242;8.670;2022-12-11T08:31:29;-0.80;99.90
47765;DHT22;33529;49.242;8.670;2022-12-11T08:33:56;-0.80;99.90
47765;DHT22;33529;49.242;8.670;2022-12-11T08:36:24;-0.70;99.90
47765;DHT22;33529;49.242;8.670;2022-12-11T08:38:53;-0.70;99.90
47765;DHT22;33529;49.242;8.670;2022-12-11T08:41:23;-0.70;99.90
47765;DHT22;33529;49.242;8.670;2022-12-11T08:43:51;-0.60;99.90
47765;DHT22;33529;49.242;8.670;2022-12-11T08:46:22;-0.60;99.90
47765;DHT22;33529;49.242;8.670;2022-12-11T08:48:49;-0.50;99.90
47765;DHT22;33529;49.242;8.670;2022-12-11T08:51:19;-0.40;99.90
47765;DHT22;33529;49.242;8.670;2022-12-11T08:53:47;-0.40;99.90
47765;DHT22;33529;49.242;8.670;2022-12-11T08:56:16;-0.30;99.90
47765;DHT22;33529;49.242;8.670;2022-12-11T08:58:45;-0.40;99.90
47765;DHT22;33529;49.242;8.670;2022-12-11T09:03:41;-0.20;99.90
47765;DHT22;33529;49.242;8.670;2022-12-11T09:06:10;-0.20;99.90
47765;DHT22;33529;49.242;8.670;2022-12-11T09:08:39;-0.20;99.90
47765;DHT22;33529;49.242;8.670;2022-12-11T09:11:11;-0.20;99.90
47765;DHT22;33529;49.242;8.670;2022-12-11T09:13:39;-0.10;99.90
47765;DHT22;33529;49.242;8.670;2022-12-11T09:16:09;0.10;99.90
47765;DHT22;33529;49.242;8.670;2022-12-11T09:18:37;0.10;99.90
47765;DHT22;33529;49.242;8.670;2022-12-11T09:21:07;0.10;99.90
47765;DHT22;33529;49.242;8.670;2022-12-11T09:23:35;0.20;99.90
47765;DHT22;33529;49.242;8.670;2022-12-11T09:26:06;0.20;99.90
47765;DHT22;33529;49.242;8.670;2022-12-11T09:28:33;0.20;99.90
47765;DHT22;33529;49.242;8.670;2022-12-11T09:31:00;0.10;99.90
47765;DHT22;33529;49.242;8.670;2022-12-11T09:33:27;0.00;99.90
47765;DHT22;33529;49.242;8.670;2022-12-11T09:36:01;-0.10;99.90
47765;DHT22;33529;49.242;8.670;2022-12-11T09:38:28;-0.10;99.90
47765;DHT22;33529;49.242;8.670;2022-12-11T09:40:55;0.00;99.90
47765;DHT22;33529;49.242;8.670;2022-12-11T09:43:43;0.10;99.90
47765;DHT22;33529;49.242;8.670;2022-12-11T09:46:15;0.20;99.90
47765;DHT22;33529;49.242;8.670;2022-12-11T09:48:47;0.20;99.90
47765;DHT22;33529;49.242;8.670;2022-12-11T09:51:26;0.30;99.90
47765;DHT22;33529;49.242;8.670;2022-12-11T09:53:55;0.30;99.90
47765;DHT22;33529;49.242;8.670;2022-12-11T09:56:32;0.30;99.90
47765;DHT22;33529;49.242;8.670;2022-12-11T10:01:49;0.10;99.90
47765;DHT22;33529;49.242;8.670;2022-12-11T10:04:33;0.20;99.90
47765;DHT22;33529;49.242;8.670;2022-12-11T10:09:57;0.30;99.90
47765;DHT22;33529;49.242;8.670;2022-12-11T10:15:24;0.30;99.90
47765;DHT22;33529;49.242;8.670;2022-12-11T10:17:54;0.40;99.90
47765;DHT22;33529;49.242;8.670;2022-12-11T10:20:32;0.40;99.90
47765;DHT22;33529;49.242;8.670;2022-12-11T10:23:20;0.50;99.90
47765;DHT22;33529;49.242;8.670;2022-12-11T10:26:06;0.50;99.90
47765;DHT22;33529;49.242;8.670;2022-12-11T10:28:34;0.60;99.90
47765;DHT22;33529;49.242;8.670;2022-12-11T10:31:16;0.60;99.90
47765;DHT22;33529;49.242;8.670;2022-12-11T10:36:38;0.40;99.90
47765;DHT22;33529;49.242;8.670;2022-12-11T10:39:14;0.50;99.90
47765;DHT22;33529;49.242;8.670;2022-12-11T10:41:44;0.60;99.90
47765;DHT22;33529;49.242;8.670;2022-12-11T10:44:20;0.70;99.90
47765;DHT22;33529;49.242;8.670;2022-12-11T10:47:11;0.60;99.90
47765;DHT22;33529;49.242;8.670;2022-12-11T10:49:37;0.70;99.90
47765;DHT22;33529;49.242;8.670;2022-12-11T10:52:17;0.80;99.90
47765;DHT22;33529;49.242;8.670;2022-12-11T10:54:46;1.00;99.90
47765;DHT22;33529;49.242;8.670;2022-12-11T10:57:34;1.10;99.90
47765;DHT22;33529;49.242;8.670;2022-12-11T11:00:04;1.30;99.90
47765;DHT22;33529;49.242;8.670;2022-12-11T11:02:37;1.30;99.90
47765;DHT22;33529;49.242;8.670;2022-12-11T11:05:25;1.30;99.90
47765;DHT22;33529;49.242;8.670;2022-12-11T11:08:16;1.50;99.90
47765;DHT22;33529;49.242;8.670;2022-12-11T11:10:59;1.70;99.90
47765;DHT22;33529;49.242;8.670;2022-12-11T11:13:28;1.80;99.90
47765;DHT22;33529;49.242;8.670;2022-12-11T11:16:11;2.00;99.90
47765;DHT22;33529;49.242;8.670;2022-12-11T11:18:40;2.10;99.90
47765;DHT22;33529;49.242;8.670;2022-12-11T11:21:15;2.30;99.90
47765;DHT22;33529;49.242;8.670;2022-12-11T11:23:43;2.50;99.90
47765;DHT22;33529;49.242;8.670;2022-12-11T11:26:16;2.60;99.90
47765;DHT22;33529;49.242;8.670;2022-12-11T11:29:02;2.80;99.90
47765;DHT22;33529;49.242;8.670;2022-12-11T11:31:34;2.60;99.90
47765;DHT22;33529;49.242;8.670;2022-12-11T11:34:02;2.60;99.90
47765;DHT22;33529;49.242;8.670;2022-12-11T11:36:34;2.50;99.90
47765;DHT22;33529;49.242;8.670;2022-12-11T11:39:36;2.50;99.90
47765;DHT22;33529;49.242;8.670;2022-12-11T11:42:29;2.40;99.90
47765;DHT22;33529;49.242;8.670;2022-12-11T11:45:11;2.40;99.90
47765;DHT22;33529;49.242;8.670;2022-12-11T11:50:42;2.30;99.90
47765;DHT22;33529;49.242;8.670;2022-12-11T11:53:21;2.00;99.90
47765;DHT22;33529;49.242;8.670;2022-12-11T11:59:02;1.90;99.90
47765;DHT22;33529;49.242;8.670;2022-12-11T12:01:30;1.80;99.90
47765;DHT22;33529;49.242;8.670;2022-12-11T12:03:58;1.70;99.90
47765;DHT22;33529;49.242;8.670;2022-12-11T12:06:27;1.60;99.90
47765;DHT22;33529;49.242;8.670;2022-12-11T12:20:18;1.70;99.90
47765;DHT22;33529;49.242;8.670;2022-12-11T12:25:30;1.50;99.90
47765;DHT22;33529;49.242;8.670;2022-12-11T12:28:16;1.50;99.90
47765;DHT22;33529;49.242;8.670;2022-12-11T12:36:17;1.30;99.90
47765;DHT22;33529;49.242;8.670;2022-12-11T12:39:00;1.30;99.90
47765;DHT22;33529;49.242;8.670;2022-12-11T12:41:47;1.40;99.90
47765;DHT22;33529;49.242;8.670;2022-12-11T12:44:19;1.40;99.90
47765;DHT22;33529;49.242;8.670;2022-12-11T12:47:08;1.50;99.90
47765;DHT22;33529;49.242;8.670;2022-12-11T12:49:46;1.50;99.90
47765;DHT22;33529;49.242;8.670;2022-12-11T12:54:54;1.50;99.90
47765;DHT22;33529;49.242;8.670;2022-12-11T12:57:45;1.60;99.90
47765;DHT22;33529;49.242;8.670;2022-12-11T13:00:12;1.70;99.90
47765;DHT22;33529;49.242;8.670;2022-12-11T13:02:49;1.70;99.90
47765;DHT22;33529;49.242;8.670;2022-12-11T13:05:22;1.80;99.90
47765;DHT22;33529;49.242;8.670;2022-12-11T13:07:53;1.70;99.90
47765;DHT22;33529;49.242;8.670;2022-12-11T13:10:41;1.70;99.90
47765;DHT22;33529;49.242;8.670;2022-12-11T13:13:30;1.70;99.90
47765;DHT22;33529;49.242;8.670;2022-12-11T13:18:45;1.80;99.90
47765;DHT22;33529;49.242;8.670;2022-12-11T13:23:52;1.90;99.90
47765;DHT22;33529;49.242;8.670;2022-12-11T13:26:30;1.90;99.90
47765;DHT22;33529;49.242;8.670;2022-12-11T13:28:57;1.90;99.90
47765;DHT22;33529;49.242;8.670;2022-12-11T13:31:43;1.90;99.90
47765;DHT22;33529;49.242;8.670;2022-12-11T13:34:16;1.90;99.90
47765;DHT22;33529;49.242;8.670;2022-12-11T13:36:48;1.90;99.90
47765;DHT22;33529;49.242;8.670;2022-12-11T13:42:01;2.00;99.90
47765;DHT22;33529;49.242;8.670;2022-12-11T13:44:38;2.00;99.90
47765;DHT22;33529;49.242;8.670;2022-12-11T13:47:11;2.00;99.90
47765;DHT22;33529;49.242;8.670;2022-12-11T13:49:41;2.00;99.90
47765;DHT22;33529;49.242;8.670;2022-12-11T13:52:18;1.90;99.90
47765;DHT22;33529;49.242;8.670;2022-12-11T13:54:50;1.90;99.90
47765;DHT22;33529;49.242;8.670;2022-12-11T13:57:20;1.80;99.90
47765;DHT22;33529;49.242;8.670;2022-12-11T13:59:49;1.80;99.90
47765;DHT22;33529;49.242;8.670;2022-12-11T14:02:36;1.80;99.90
47765;DHT22;33529;49.242;8.670;2022-12-11T14:05:09;1.90;99.90
47765;DHT22;33529;49.242;8.670;2022-12-11T14:07:51;1.80;99.90
47765;DHT22;33529;49.242;8.670;2022-12-11T14:10:25;1.80;99.90
47765;DHT22;33529;49.242;8.670;2022-12-11T14:13:02;1.70;99.90
47765;DHT22;33529;49.242;8.670;2022-12-11T14:15:31;1.60;99.90
47765;DHT22;33529;49.242;8.670;2022-12-11T14:17:59;1.60;99.90
47765;DHT22;33529;49.242;8.670;2022-12-11T14:20:31;1.60;99.90
47765;DHT22;33529;49.242;8.670;2022-12-11T14:23:17;1.60;99.90
47765;DHT22;33529;49.242;8.670;2022-12-11T14:25:58;1.60;99.90
47765;DHT22;33529;49.242;8.670;2022-12-11T14:28:27;1.60;99.90
47765;DHT22;33529;49.242;8.670;2022-12-11T14:30:58;1.60;99.90
47765;DHT22;33529;49.242;8.670;2022-12-11T14:33:31;1.50;99.90
47765;DHT22;33529;49.242;8.670;2022-12-11T14:35:59;1.50;99.90
47765;DHT22;33529;49.242;8.670;2022-12-11T14:38:33;1.50;99.90
47765;DHT22;33529;49.242;8.670;2022-12-11T14:41:18;1.30;99.90
47765;DHT22;33529;49.242;8.670;2022-12-11T14:43:50;1.20;99.90
47765;DHT22;33529;49.242;8.670;2022-12-11T14:46:25;1.20;99.90
47765;DHT22;33529;49.242;8.670;2022-12-11T14:49:19;1.20;99.90
47765;DHT22;33529;49.242;8.670;2022-12-11T14:51:47;1.20;99.90
47765;DHT22;33529;49.242;8.670;2022-12-11T14:54:30;1.10;99.90
47765;DHT22;33529;49.242;8.670;2022-12-11T14:57:00;1.10;99.90
47765;DHT22;33529;49.242;8.670;2022-12-11T14:59:37;1.10;99.90
47765;DHT22;33529;49.242;8.670;2022-12-11T15:02:27;1.00;99.90
47765;DHT22;33529;49.242;8.670;2022-12-11T15:05:11;1.00;99.90
47765;DHT22;33529;49.242;8.670;2022-12-11T15:07:41;1.00;99.90
47765;DHT22;33529;49.242;8.670;2022-12-11T15:10:33;1.00;99.90
47765;DHT22;33529;49.242;8.670;2022-12-11T15:13:03;1.00;99.90
47765;DHT22;33529;49.242;8.670;2022-12-11T15:15:37;1.00;99.90
47765;DHT22;33529;49.242;8.670;2022-12-11T15:18:07;1.00;99.90
47765;DHT22;33529;49.242;8.670;2022-12-11T15:20:40;1.00;99.90
47765;DHT22;33529;49.242;8.670;2022-12-11T15:23:07;0.90;99.90
47765;DHT22;33529;49.242;8.670;2022-12-11T15:25:33;0.80;99.90
47765;DHT22;33529;49.242;8.670;2022-12-11T15:28:00;0.80;99.90
47765;DHT22;33529;49.242;8.670;2022-12-11T15:30:30;0.80;99.90
47765;DHT22;33529;49.242;8.670;2022-12-11T15:33:17;0.80;99.90
47765;DHT22;33529;49.242;8.670;2022-12-11T15:35:54;0.80;99.90
47765;DHT22;33529;49.242;8.670;2022-12-11T15:38:40;0.70;99.90
47765;DHT22;33529;49.242;8.670;2022-12-11T15:41:14;0.70;99.90
47765;DHT22;33529;49.242;8.670;2022-12-11T15:43:41;0.70;99.90
47765;DHT22;33529;49.242;8.670;2022-12-11T15:46:09;0.70;99.90
47765;DHT22;33529;49.242;8.670;2022-12-11T15:48:35;0.60;99.90
47765;DHT22;33529;49.242;8.670;2022-12-11T15:51:02;0.60;99.90
47765;DHT22;33529;49.242;8.670;2022-12-11T15:53:29;0.60;99.90
47765;DHT22;33529;49.242;8.670;2022-12-11T15:55:57;0.50;99.90
47765;DHT22;33529;49.242;8.670;2022-12-11T15:58:24;0.60;99.90
47765;DHT22;33529;49.242;8.670;2022-12-11T16:00:53;0.40;99.90
47765;DHT22;33529;49.242;8.670;2022-12-11T16:03:21;0.40;99.90
47765;DHT22;33529;49.242;8.670;2022-12-11T16:05:49;0.40;99.90
47765;DHT22;33529;49.242;8.670;2022-12-11T16:08:20;0.40;99.90
47765;DHT22;33529;49.242;8.670;2022-12-11T16:10:47;0.30;99.90
47765;DHT22;33529;49.242;8.670;2022-12-11T16:13:14;0.30;99.90
47765;DHT22;33529;49.242;8.670;2022-12-11T16:15:43;0.40;99.90
47765;DHT22;33529;49.242;8.670;2022-12-11T16:18:17;0.30;99.90
47765;DHT22;33529;49.242;8.670;2022-12-11T16:20:46;0.30;99.90
47765;DHT22;33529;49.242;8.670;2022-12-11T16:23:13;0.30;99.90
47765;DHT22;33529;49.242;8.670;2022-12-11T16:25:43;0.30;99.90
47765;DHT22;33529;49.242;8.670;2022-12-11T16:28:12;0.30;99.90
47765;DHT22;33529;49.242;8.670;2022-12-11T16:30:40;0.40;99.90
47765;DHT22;33529;49.242;8.670;2022-12-11T16:33:10;0.40;99.90
47765;DHT22;33529;49.242;8.670;2022-12-11T16:35:40;0.40;99.90
47765;DHT22;33529;49.242;8.670;2022-12-11T16:38:08;0.40;99.90
47765;DHT22;33529;49.242;8.670;2022-12-11T16:40:35;0.40;99.90
47765;DHT22;33529;49.242;8.670;2022-12-11T16:43:03;0.40;99.90
47765;DHT22;33529;49.242;8.670;2022-12-11T16:45:31;0.50;99.90
47765;DHT22;33529;49.242;8.670;2022-12-11T16:48:01;0.50;99.90
47765;DHT22;33529;49.242;8.670;2022-12-11T16:50:28;0.50;99.90
47765;DHT22;33529;49.242;8.670;2022-12-11T16:52:55;0.50;99.90
47765;DHT22;33529;49.242;8.670;2022-12-11T16:55:22;0.40;99.90
47765;DHT22;33529;49.242;8.670;2022-12-11T16:57:49;0.40;99.90
47765;DHT22;33529;49.242;8.670;2022-12-11T17:00:16;0.50;99.90
47765;DHT22;33529;49.242;8.670;2022-12-11T17:02:43;0.60;99.90
47765;DHT22;33529;49.242;8.670;2022-12-11T17:05:10;0.60;99.90
47765;DHT22;33529;49.242;8.670;2022-12-11T17:07:38;0.60;99.90
47765;DHT22;33529;49.242;8.670;2022-12-11T17:10:06;0.60;99.90
47765;DHT22;33529;49.242;8.670;2022-12-11T17:12:33;0.70;99.90
47765;DHT22;33529;49.242;8.670;2022-12-11T17:14:59;0.80;99.90